sensor_id;sensor_type;location;lat;lon;timestamp;pressure;altitude;pressure_sealevel;temperature;humidity
25156;BME280;21913;52.456;13.634;2022-09-09T00:01:57;99601.72;;;21.56;63.24
25156;BME280;21913;52.456;13.634;2022-09-09T00:07:18;99599.09;;;21.56;63.65
25156;BME280;21913;52.456;13.634;2022-09-09T00:23:40;99579.91;;;21.54;63.69
25156;BME280;21913;52.456;13.634;2022-09-09T00:39:40;99572.84;;;21.55;63.67
25156;BME280;21913;52.456;13.634;2022-09-09T01:00:57;99565.06;;;21.53;63.78
25156;BME280;21913;52.456;13.634;2022-09-09T01:11:02;99566.81;;;21.52;63.69
25156;BME280;21913;52.456;13.634;2022-09-09T01:16:08;99561.53;;;21.52;63.76
25156;BME280;21913;52.456;13.634;2022-09-09T01:26:19;99565.06;;;21.53;63.53
25156;BME280;21913;52.456;13.634;2022-09-09T01:31:32;99558.91;;;21.52;63.86
25156;BME280;21913;52.456;13.634;2022-09-09T01:41:42;99565.09;;;21.51;63.56
25156;BME280;21913;52.456;13.634;2022-09-09T01:46:46;99562.47;;;21.51;63.67
25156;BME280;21913;52.456;13.634;2022-09-09T01:51:55;99562.47;;;21.51;63.54
25156;BME280;21913;52.456;13.634;2022-09-09T01:57:24;99547.63;;;21.50;63.91
25156;BME280;21913;52.456;13.634;2022-09-09T02:13:20;99539.72;;;21.50;63.90
25156;BME280;21913;52.456;13.634;2022-09-09T02:18:44;99554.59;;;21.51;64.04
25156;BME280;21913;52.456;13.634;2022-09-09T02:23:50;99550.25;;;21.50;63.77
25156;BME280;21913;52.456;13.634;2022-09-09T02:28:55;99554.66;;;21.50;63.69
25156;BME280;21913;52.456;13.634;2022-09-09T02:34:00;99557.31;;;21.50;64.05
25156;BME280;21913;52.456;13.634;2022-09-09T02:39:04;99558.25;;;21.49;63.62
25156;BME280;21913;52.456;13.634;2022-09-09T02:44:11;99559.09;;;21.49;63.98
25156;BME280;21913;52.456;13.634;2022-09-09T02:49:56;99558.25;;;21.49;63.64
25156;BME280;21913;52.456;13.634;2022-09-09T02:55:07;99563.50;;;21.49;63.80
25156;BME280;21913;52.456;13.634;2022-09-09T03:00:14;99560.03;;;21.48;63.90
25156;BME280;21913;52.456;13.634;2022-09-09T03:05:16;99574.09;;;21.47;64.09
25156;BME280;21913;52.456;13.634;2022-09-09T03:10:17;99573.19;;;21.48;63.97
25156;BME280;21913;52.456;13.634;2022-09-09T03:15:20;99574.09;;;21.47;63.79
25156;BME280;21913;52.456;13.634;2022-09-09T03:20:24;99575.88;;;21.47;63.73
25156;BME280;21913;52.456;13.634;2022-09-09T03:25:26;99568.81;;;21.47;64.15
25156;BME280;21913;52.456;13.634;2022-09-09T03:30:28;99561.03;;;21.46;64.19
25156;BME280;21913;52.456;13.634;2022-09-09T03:35:30;99567.97;;;21.47;63.88
25156;BME280;21913;52.456;13.634;2022-09-09T03:40:33;99565.44;;;21.45;64.08
25156;BME280;21913;52.456;13.634;2022-09-09T03:45:34;99554.81;;;21.47;63.74
25156;BME280;21913;52.456;13.634;2022-09-09T03:50:36;99564.50;;;21.46;64.09
25156;BME280;21913;52.456;13.634;2022-09-09T03:55:37;99565.34;;;21.47;64.14
25156;BME280;21913;52.456;13.634;2022-09-09T04:00:39;99560.16;;;21.45;63.83
25156;BME280;21913;52.456;13.634;2022-09-09T04:05:41;99551.44;;;21.45;63.87
25156;BME280;21913;52.456;13.634;2022-09-09T04:10:45;99552.28;;;21.45;64.11
25156;BME280;21913;52.456;13.634;2022-09-09T04:15:53;99552.28;;;21.45;64.02
25156;BME280;21913;52.456;13.634;2022-09-09T04:20:56;99551.44;;;21.45;64.21
25156;BME280;21913;52.456;13.634;2022-09-09T04:26:01;99553.22;;;21.44;63.98
25156;BME280;21913;52.456;13.634;2022-09-09T04:31:18;99552.28;;;21.45;64.16
25156;BME280;21913;52.456;13.634;2022-09-09T04:36:22;99553.22;;;21.44;63.98
25156;BME280;21913;52.456;13.634;2022-09-09T04:41:28;99562.88;;;21.44;64.19
25156;BME280;21913;52.456;13.634;2022-09-09T04:46:29;99559.41;;;21.43;64.33
25156;BME280;21913;52.456;13.634;2022-09-09T04:51:32;99561.19;;;21.43;64.04
25156;BME280;21913;52.456;13.634;2022-09-09T04:56:33;99572.56;;;21.43;63.90
25156;BME280;21913;52.456;13.634;2022-09-09T05:01:35;99570.88;;;21.42;63.92
25156;BME280;21913;52.456;13.634;2022-09-09T05:06:39;99568.25;;;21.42;64.30
25156;BME280;21913;52.456;13.634;2022-09-09T05:11:41;99570.00;;;21.42;63.91
25156;BME280;21913;52.456;13.634;2022-09-09T05:17:12;99567.38;;;21.42;64.28
25156;BME280;21913;52.456;13.634;2022-09-09T05:22:20;99572.63;;;21.42;64.26
25156;BME280;21913;52.456;13.634;2022-09-09T05:27:23;99566.50;;;21.41;64.00
25156;BME280;21913;52.456;13.634;2022-09-09T05:32:26;99565.66;;;21.41;64.08
25156;BME280;21913;52.456;13.634;2022-09-09T05:37:27;99577.03;;;21.41;63.99
25156;BME280;21913;52.456;13.634;2022-09-09T05:42:30;99578.81;;;21.41;64.24
25156;BME280;21913;52.456;13.634;2022-09-09T05:47:32;99577.97;;;21.40;64.32
25156;BME280;21913;52.456;13.634;2022-09-09T05:52:34;99573.56;;;21.41;64.10
25156;BME280;21913;52.456;13.634;2022-09-09T05:57:35;99572.72;;;21.40;64.23
25156;BME280;21913;52.456;13.634;2022-09-09T06:02:38;99571.03;;;21.39;64.38
25156;BME280;21913;52.456;13.634;2022-09-09T06:07:39;99574.50;;;21.40;64.02
25156;BME280;21913;52.456;13.634;2022-09-09T06:12:41;99570.09;;;21.40;64.08
25156;BME280;21913;52.456;13.634;2022-09-09T06:17:43;99571.88;;;21.40;64.42
25156;BME280;21913;52.456;13.634;2022-09-09T06:22:46;99566.69;;;21.38;64.41
25156;BME280;21913;52.456;13.634;2022-09-09T06:27:48;99582.41;;;21.40;64.20
25156;BME280;21913;52.456;13.634;2022-09-09T06:32:50;99585.97;;;21.39;64.52
25156;BME280;21913;52.456;13.634;2022-09-09T06:37:52;99578.06;;;21.39;64.55
25156;BME280;21913;52.456;13.634;2022-09-09T06:42:53;99583.47;;;21.36;64.57
25156;BME280;21913;52.456;13.634;2022-09-09T06:48:09;99590.47;;;21.37;63.85
25156;BME280;21913;52.456;13.634;2022-09-09T06:53:10;99591.38;;;21.36;63.61
25156;BME280;21913;52.456;13.634;2022-09-09T06:58:12;99594.84;;;21.36;63.53
25156;BME280;21913;52.456;13.634;2022-09-09T07:03:14;99586.94;;;21.36;63.34
25156;BME280;21913;52.456;13.634;2022-09-09T07:08:15;99594.84;;;21.36;63.45
25156;BME280;21913;52.456;13.634;2022-09-09T07:13:17;99586.06;;;21.37;63.89
25156;BME280;21913;52.456;13.634;2022-09-09T07:18:19;99583.47;;;21.36;63.82
25156;BME280;21913;52.456;13.634;2022-09-09T07:23:21;99585.19;;;21.37;64.13
25156;BME280;21913;52.456;13.634;2022-09-09T07:28:25;99590.53;;;21.35;63.71
25156;BME280;21913;52.456;13.634;2022-09-09T07:33:27;99595.78;;;21.35;64.20
25156;BME280;21913;52.456;13.634;2022-09-09T07:38:29;99601.88;;;21.36;64.14
25156;BME280;21913;52.456;13.634;2022-09-09T07:43:31;99597.47;;;21.36;64.12
25156;BME280;21913;52.456;13.634;2022-09-09T07:48:33;99595.88;;;21.34;63.94
25156;BME280;21913;52.456;13.634;2022-09-09T07:53:36;99598.41;;;21.35;64.21
25156;BME280;21913;52.456;13.634;2022-09-09T07:58:39;99599.25;;;21.36;64.35
25156;BME280;21913;52.456;13.634;2022-09-09T08:03:41;99605.47;;;21.35;63.96
25156;BME280;21913;52.456;13.634;2022-09-09T08:08:42;99613.34;;;21.35;64.25
25156;BME280;21913;52.456;13.634;2022-09-09T08:13:44;99612.41;;;21.36;64.29
25156;BME280;21913;52.456;13.634;2022-09-09T08:18:46;99611.66;;;21.34;64.08
25156;BME280;21913;52.456;13.634;2022-09-09T08:23:50;99622.19;;;21.34;64.22
25156;BME280;21913;52.456;13.634;2022-09-09T08:28:57;99626.50;;;21.35;64.01
25156;BME280;21913;52.456;13.634;2022-09-09T08:34:01;99626.59;;;21.33;63.94
25156;BME280;21913;52.456;13.634;2022-09-09T08:39:04;99627.44;;;21.34;64.41
25156;BME280;21913;52.456;13.634;2022-09-09T08:44:11;99627.34;;;21.35;64.41
25156;BME280;21913;52.456;13.634;2022-09-09T08:54:28;99630.06;;;21.34;64.10
25156;BME280;21913;52.456;13.634;2022-09-09T08:59:50;99637.13;;;21.33;64.21
25156;BME280;21913;52.456;13.634;2022-09-09T09:05:01;99637.97;;;21.34;64.21
25156;BME280;21913;52.456;13.634;2022-09-09T09:10:19;99645.78;;;21.35;64.14
25156;BME280;21913;52.456;13.634;2022-09-09T09:15:41;99641.53;;;21.33;64.13
25156;BME280;21913;52.456;13.634;2022-09-09T09:20:50;99651.03;;;21.35;64.08
25156;BME280;21913;52.456;13.634;2022-09-09T09:25:58;99647.47;;;21.36;64.60
25156;BME280;21913;52.456;13.634;2022-09-09T09:31:10;99645.78;;;21.35;64.36
25156;BME280;21913;52.456;13.634;2022-09-09T09:36:15;99637.88;;;21.35;64.47
25156;BME280;21913;52.456;13.634;2022-09-09T09:41:48;99638.69;;;21.37;64.14
25156;BME280;21913;52.456;13.634;2022-09-09T09:46:50;99632.63;;;21.35;64.52
25156;BME280;21913;52.456;13.634;2022-09-09T09:51:52;99630.84;;;21.36;64.20
25156;BME280;21913;52.456;13.634;2022-09-09T09:56:54;99640.50;;;21.35;64.29
25156;BME280;21913;52.456;13.634;2022-09-09T10:07:22;99637.81;;;21.37;64.52
25156;BME280;21913;52.456;13.634;2022-09-09T10:23:29;99619.63;;;21.32;64.45
25156;BME280;21913;52.456;13.634;2022-09-09T10:39:39;99608.25;;;21.32;64.30
25156;BME280;21913;52.456;13.634;2022-09-09T10:55:30;99593.31;;;21.32;64.32
25156;BME280;21913;52.456;13.634;2022-09-09T11:00:38;99600.38;;;21.32;64.46
25156;BME280;21913;52.456;13.634;2022-09-09T11:05:43;99587.22;;;21.32;64.32
25156;BME280;21913;52.456;13.634;2022-09-09T11:21:29;99581.06;;;21.31;64.25
25156;BME280;21913;52.456;13.634;2022-09-09T11:26:37;99590.69;;;21.32;64.21
25156;BME280;21913;52.456;13.634;2022-09-09T11:37:21;99585.50;;;21.31;64.23
25156;BME280;21913;52.456;13.634;2022-09-09T11:42:30;99587.28;;;21.30;64.29
25156;BME280;21913;52.456;13.634;2022-09-09T11:47:31;99591.69;;;21.30;64.31
25156;BME280;21913;52.456;13.634;2022-09-09T11:52:40;99591.59;;;21.31;64.44
25156;BME280;21913;52.456;13.634;2022-09-09T11:57:42;99589.91;;;21.30;64.44
25156;BME280;21913;52.456;13.634;2022-09-09T12:02:49;99593.38;;;21.31;64.49
25156;BME280;21913;52.456;13.634;2022-09-09T12:07:55;99590.75;;;21.31;64.45
25156;BME280;21913;52.456;13.634;2022-09-09T12:18:24;99595.16;;;21.30;64.32
25156;BME280;21913;52.456;13.634;2022-09-09T12:24:02;99599.56;;;21.30;64.25
25156;BME280;21913;52.456;13.634;2022-09-09T12:34:39;99601.34;;;21.29;64.60
25156;BME280;21913;52.456;13.634;2022-09-09T12:39:47;99594.38;;;21.28;64.64
25156;BME280;21913;52.456;13.634;2022-09-09T12:45:00;99599.63;;;21.28;64.26
25156;BME280;21913;52.456;13.634;2022-09-09T12:50:02;99586.47;;;21.28;64.43
25156;BME280;21913;52.456;13.634;2022-09-09T12:55:05;99581.22;;;21.28;64.50
25156;BME280;21913;52.456;13.634;2022-09-09T13:00:20;99582.91;;;21.29;64.57
25156;BME280;21913;52.456;13.634;2022-09-09T13:05:34;99565.44;;;21.28;64.54
25156;BME280;21913;52.456;13.634;2022-09-09T13:10:57;99564.91;;;21.21;59.77
25156;BME280;21913;52.456;13.634;2022-09-09T13:16:03;99560.81;;;21.16;54.71
25156;BME280;21913;52.456;13.634;2022-09-09T13:21:06;99551.66;;;21.23;53.56
25156;BME280;21913;52.456;13.634;2022-09-09T13:26:25;99560.31;;;21.25;52.00
25156;BME280;21913;52.456;13.634;2022-09-09T13:36:31;99548.28;;;21.21;51.24
25156;BME280;21913;52.456;13.634;2022-09-09T13:41:35;99557.84;;;21.22;51.73
25156;BME280;21913;52.456;13.634;2022-09-09T13:46:41;99542.16;;;21.20;52.60
25156;BME280;21913;52.456;13.634;2022-09-09T13:51:46;99565.75;;;21.22;53.25
25156;BME280;21913;52.456;13.634;2022-09-09T13:56:48;99573.56;;;21.23;54.05
25156;BME280;21913;52.456;13.634;2022-09-09T14:01:49;99566.50;;;21.24;54.36
25156;BME280;21913;52.456;13.634;2022-09-09T14:06:51;99555.03;;;21.25;54.82
25156;BME280;21913;52.456;13.634;2022-09-09T14:11:53;99553.25;;;21.25;55.27
25156;BME280;21913;52.456;13.634;2022-09-09T14:16:54;99555.91;;;21.25;55.88
25156;BME280;21913;52.456;13.634;2022-09-09T14:21:56;99547.16;;;21.25;56.12
25156;BME280;21913;52.456;13.634;2022-09-09T14:26:59;99553.34;;;21.24;56.63
25156;BME280;21913;52.456;13.634;2022-09-09T14:32:00;99561.16;;;21.25;57.11
25156;BME280;21913;52.456;13.634;2022-09-09T14:37:02;99555.97;;;21.24;57.45
25156;BME280;21913;52.456;13.634;2022-09-09T14:42:04;99548.09;;;21.24;57.42
25156;BME280;21913;52.456;13.634;2022-09-09T14:47:06;99552.50;;;21.23;57.89
25156;BME280;21913;52.456;13.634;2022-09-09T14:52:08;99555.13;;;21.23;57.99
25156;BME280;21913;52.456;13.634;2022-09-09T14:57:09;99566.50;;;21.24;58.55
25156;BME280;21913;52.456;13.634;2022-09-09T15:02:11;99557.78;;;21.23;58.63
25156;BME280;21913;52.456;13.634;2022-09-09T15:07:12;99558.63;;;21.24;58.95
25156;BME280;21913;52.456;13.634;2022-09-09T15:12:14;99562.19;;;21.23;58.86
25156;BME280;21913;52.456;13.634;2022-09-09T15:17:16;99561.34;;;21.22;58.92
25156;BME280;21913;52.456;13.634;2022-09-09T15:22:17;99565.75;;;21.22;59.29
25156;BME280;21913;52.456;13.634;2022-09-09T15:27:19;99568.38;;;21.22;59.65
25156;BME280;21913;52.456;13.634;2022-09-09T15:32:20;99563.13;;;21.22;59.67
25156;BME280;21913;52.456;13.634;2022-09-09T15:37:22;99560.50;;;21.22;59.77
25156;BME280;21913;52.456;13.634;2022-09-09T15:42:23;99560.50;;;21.22;59.93
25156;BME280;21913;52.456;13.634;2022-09-09T15:47:24;99557.00;;;21.21;60.20
25156;BME280;21913;52.456;13.634;2022-09-09T15:52:26;99543.00;;;21.21;60.25
25156;BME280;21913;52.456;13.634;2022-09-09T15:57:27;99559.63;;;21.21;60.07
25156;BME280;21913;52.456;13.634;2022-09-09T16:02:29;99569.31;;;21.21;60.52
25156;BME280;21913;52.456;13.634;2022-09-09T16:07:31;99593.84;;;21.21;60.19
25156;BME280;21913;52.456;13.634;2022-09-09T16:12:32;99590.34;;;21.21;60.57
25156;BME280;21913;52.456;13.634;2022-09-09T16:17:34;99590.34;;;21.21;60.74
25156;BME280;21913;52.456;13.634;2022-09-09T16:22:35;99590.34;;;21.21;60.71
25156;BME280;21913;52.456;13.634;2022-09-09T16:27:37;99600.88;;;21.21;60.88
25156;BME280;21913;52.456;13.634;2022-09-09T16:32:38;99595.63;;;21.21;60.74
25156;BME280;21913;52.456;13.634;2022-09-09T16:37:40;99610.56;;;21.20;60.97
25156;BME280;21913;52.456;13.634;2022-09-09T16:42:41;99620.19;;;21.20;60.88
25156;BME280;21913;52.456;13.634;2022-09-09T16:47:43;99628.09;;;21.20;61.09
25156;BME280;21913;52.456;13.634;2022-09-09T16:52:44;99635.09;;;21.21;61.34
25156;BME280;21913;52.456;13.634;2022-09-09T16:57:46;99635.13;;;21.19;61.33
25156;BME280;21913;52.456;13.634;2022-09-09T17:02:48;99644.81;;;21.19;61.15
25156;BME280;21913;52.456;13.634;2022-09-09T17:07:49;99640.41;;;21.19;61.41
25156;BME280;21913;52.456;13.634;2022-09-09T17:12:51;99652.69;;;21.19;61.46
25156;BME280;21913;52.456;13.634;2022-09-09T17:17:52;99655.34;;;21.19;61.67
25156;BME280;21913;52.456;13.634;2022-09-09T17:22:54;99650.06;;;21.19;61.32
25156;BME280;21913;52.456;13.634;2022-09-09T17:27:55;99640.47;;;21.18;61.47
25156;BME280;21913;52.456;13.634;2022-09-09T17:32:57;99640.47;;;21.18;61.59
25156;BME280;21913;52.456;13.634;2022-09-09T17:37:58;99637.84;;;21.18;61.48
25156;BME280;21913;52.456;13.634;2022-09-09T17:43:00;99629.97;;;21.18;61.54
25156;BME280;21913;52.456;13.634;2022-09-09T17:48:01;99629.13;;;21.17;61.96
25156;BME280;21913;52.456;13.634;2022-09-09T17:53:03;99632.69;;;21.16;61.72
25156;BME280;21913;52.456;13.634;2022-09-09T17:58:04;99639.63;;;21.17;62.07
25156;BME280;21913;52.456;13.634;2022-09-09T18:03:06;99637.00;;;21.17;62.03
25156;BME280;21913;52.456;13.634;2022-09-09T18:08:07;99636.16;;;21.17;62.24
25156;BME280;21913;52.456;13.634;2022-09-09T18:13:09;99646.69;;;21.17;62.18
25156;BME280;21913;52.456;13.634;2022-09-09T18:18:10;99655.41;;;21.17;62.04
25156;BME280;21913;52.456;13.634;2022-09-09T18:23:12;99653.72;;;21.16;62.32
25156;BME280;21913;52.456;13.634;2022-09-09T18:28:14;99658.97;;;21.16;62.01
25156;BME280;21913;52.456;13.634;2022-09-09T18:33:15;99661.63;;;21.16;62.06
25156;BME280;21913;52.456;13.634;2022-09-09T18:38:16;99663.41;;;21.16;62.48
25156;BME280;21913;52.456;13.634;2022-09-09T18:43:18;99659.91;;;21.15;62.17
25156;BME280;21913;52.456;13.634;2022-09-09T18:48:19;99672.88;;;21.01;62.35
25156;BME280;21913;52.456;13.634;2022-09-09T18:53:21;99668.78;;;20.95;62.01
25156;BME280;21913;52.456;13.634;2022-09-09T18:58:22;99658.97;;;20.99;61.75
25156;BME280;21913;52.456;13.634;2022-09-09T19:03:25;99672.66;;;21.06;61.56
25156;BME280;21913;52.456;13.634;2022-09-09T19:08:27;99669.09;;;21.07;61.67
25156;BME280;21913;52.456;13.634;2022-09-09T19:13:30;99675.97;;;21.09;61.55
25156;BME280;21913;52.456;13.634;2022-09-09T19:18:31;99680.34;;;21.10;62.05
25156;BME280;21913;52.456;13.634;2022-09-09T19:23:33;99690.00;;;21.10;62.09
25156;BME280;21913;52.456;13.634;2022-09-09T19:28:34;99690.78;;;21.12;62.05
25156;BME280;21913;52.456;13.634;2022-09-09T19:33:37;99686.44;;;21.11;62.13
25156;BME280;21913;52.456;13.634;2022-09-09T19:38:39;99685.50;;;21.12;61.91
25156;BME280;21913;52.456;13.634;2022-09-09T19:43:41;99681.19;;;21.11;62.02
25156;BME280;21913;52.456;13.634;2022-09-09T19:48:44;99680.25;;;21.12;62.36
25156;BME280;21913;52.456;13.634;2022-09-09T19:53:51;99689.84;;;21.13;62.35
25156;BME280;21913;52.456;13.634;2022-09-09T19:58:53;99682.88;;;21.12;62.39
25156;BME280;21913;52.456;13.634;2022-09-09T20:03:57;99685.50;;;21.12;62.49
25156;BME280;21913;52.456;13.634;2022-09-09T20:08:59;99684.66;;;21.11;62.57
25156;BME280;21913;52.456;13.634;2022-09-09T20:14:01;99698.66;;;21.12;62.39
25156;BME280;21913;52.456;13.634;2022-09-09T20:19:04;99702.13;;;21.12;62.62
25156;BME280;21913;52.456;13.634;2022-09-09T20:24:09;99704.84;;;21.11;62.66
25156;BME280;21913;52.456;13.634;2022-09-09T20:29:13;99705.69;;;21.11;62.34
25156;BME280;21913;52.456;13.634;2022-09-09T20:34:18;99702.22;;;21.11;62.81
25156;BME280;21913;52.456;13.634;2022-09-09T20:39:21;99703.91;;;21.12;62.68
25156;BME280;21913;52.456;13.634;2022-09-09T20:44:23;99696.13;;;21.10;62.49
25156;BME280;21913;52.456;13.634;2022-09-09T20:49:26;99703.91;;;21.12;62.89
25156;BME280;21913;52.456;13.634;2022-09-09T20:54:28;99704.84;;;21.11;62.55
25156;BME280;21913;52.456;13.634;2022-09-09T20:59:29;99713.59;;;21.11;62.76
25156;BME280;21913;52.456;13.634;2022-09-09T21:04:31;99713.69;;;21.10;62.74
25156;BME280;21913;52.456;13.634;2022-09-09T21:09:32;99713.69;;;21.10;62.75
25156;BME280;21913;52.456;13.634;2022-09-09T21:14:34;99712.78;;;21.09;62.92
25156;BME280;21913;52.456;13.634;2022-09-09T21:19:36;99725.06;;;21.10;62.70
25156;BME280;21913;52.456;13.634;2022-09-09T21:24:37;99726.84;;;21.10;62.90
25156;BME280;21913;52.456;13.634;2022-09-09T21:29:39;99729.47;;;21.10;62.81
25156;BME280;21913;52.456;13.634;2022-09-09T21:34:40;99729.47;;;21.10;62.77
25156;BME280;21913;52.456;13.634;2022-09-09T21:39:42;99723.31;;;21.09;63.14
25156;BME280;21913;52.456;13.634;2022-09-09T21:44:43;99725.09;;;21.09;62.85
25156;BME280;21913;52.456;13.634;2022-09-09T21:49:45;99722.47;;;21.09;62.81
25156;BME280;21913;52.456;13.634;2022-09-09T21:54:46;99727.72;;;21.09;63.12
25156;BME280;21913;52.456;13.634;2022-09-09T21:59:47;99727.72;;;21.09;63.26
25156;BME280;21913;52.456;13.634;2022-09-09T22:04:49;99725.09;;;21.09;63.26
25156;BME280;21913;52.456;13.634;2022-09-09T22:09:50;99726.88;;;21.08;63.05
25156;BME280;21913;52.456;13.634;2022-09-09T22:14:52;99731.28;;;21.08;63.29
25156;BME280;21913;52.456;13.634;2022-09-09T22:19:53;99731.28;;;21.08;62.85
25156;BME280;21913;52.456;13.634;2022-09-09T22:24:55;99738.34;;;21.07;63.12
25156;BME280;21913;52.456;13.634;2022-09-09T22:29:56;99733.94;;;21.08;62.87
25156;BME280;21913;52.456;13.634;2022-09-09T22:34:58;99737.41;;;21.08;63.26
25156;BME280;21913;52.456;13.634;2022-09-09T22:39:59;99741.81;;;21.08;63.02
25156;BME280;21913;52.456;13.634;2022-09-09T22:45:01;99745.38;;;21.07;62.99
25156;BME280;21913;52.456;13.634;2022-09-09T22:50:03;99742.75;;;21.07;63.14
25156;BME280;21913;52.456;13.634;2022-09-09T22:55:05;99751.47;;;21.07;63.41
25156;BME280;21913;52.456;13.634;2022-09-09T23:00:07;99749.69;;;21.08;63.05
25156;BME280;21913;52.456;13.634;2022-09-09T23:05:09;99744.44;;;21.08;63.07
25156;BME280;21913;52.456;13.634;2022-09-09T23:10:10;99745.38;;;21.07;63.24
25156;BME280;21913;52.456;13.634;2022-09-09T23:15:11;99741.91;;;21.06;63.16
25156;BME280;21913;52.456;13.634;2022-09-09T23:20:13;99741.03;;;21.06;63.47
25156;BME280;21913;52.456;13.634;2022-09-09T23:25:14;99745.47;;;21.05;63.45
25156;BME280;21913;52.456;13.634;2022-09-09T23:30:16;99748.94;;;21.06;63.53
25156;BME280;21913;52.456;13.634;2022-09-09T23:35:17;99746.31;;;21.06;63.52
25156;BME280;21913;52.456;13.634;2022-09-09T23:40:19;99747.25;;;21.05;63.37
25156;BME280;21913;52.456;13.634;2022-09-09T23:45:20;99746.31;;;21.06;63.19
25156;BME280;21913;52.456;13.634;2022-09-09T23:50:22;99741.13;;;21.04;63.26
25156;BME280;21913;52.456;13.634;2022-09-09T23:55:23;99743.75;;;21.04;63.38
